createdAt,value
2019-06-26T00:00:48.751Z,13.90
2019-06-26T00:03:17.206Z,14.93
2019-06-26T00:05:45.735Z,15.30
2019-06-26T00:08:14.214Z,14.77
2019-06-26T00:10:42.738Z,14.40
2019-06-26T00:13:25.044Z,14.27
2019-06-26T00:15:41.387Z,13.50
2019-06-26T00:18:09.996Z,16.07
2019-06-26T00:20:38.598Z,15.20
2019-06-26T00:23:07.209Z,17.53
2019-06-26T00:25:35.655Z,14.53
2019-06-26T00:28:04.196Z,14.07
2019-06-26T00:30:32.647Z,21.30
2019-06-26T00:33:01.123Z,14.67
2019-06-26T00:35:29.662Z,14.07
2019-06-26T00:37:58.119Z,19.73
2019-06-26T00:40:26.584Z,13.60
2019-06-26T00:42:55.035Z,17.20
2019-06-26T00:45:23.584Z,14.57
2019-06-26T00:47:52.076Z,14.70
2019-06-26T00:50:20.840Z,18.50
2019-06-26T00:52:49.314Z,15.20
2019-06-26T00:55:17.993Z,16.90
2019-06-26T00:57:46.592Z,14.83
2019-06-26T01:00:15.291Z,18.13
2019-06-26T01:02:43.756Z,14.90
2019-06-26T01:05:13.420Z,16.13
2019-06-26T01:07:41.966Z,18.97
2019-06-26T01:10:13.071Z,19.33
2019-06-26T01:12:41.559Z,16.07
2019-06-26T01:15:10.923Z,16.10
2019-06-26T01:17:39.569Z,15.33
2019-06-26T01:20:08.543Z,16.40
2019-06-26T01:22:37.007Z,16.90
2019-06-26T01:25:05.981Z,16.80
2019-06-26T01:27:34.569Z,15.33
2019-06-26T01:30:04.580Z,18.90
2019-06-26T01:32:33.052Z,15.87
2019-06-26T01:35:01.565Z,18.43
2019-06-26T01:37:30.048Z,20.80
2019-06-26T01:39:58.525Z,15.57
2019-06-26T01:42:26.999Z,16.13
2019-06-26T01:44:55.480Z,16.10
2019-06-26T01:47:23.998Z,18.77
2019-06-26T01:49:52.555Z,14.20
2019-06-26T01:52:21.076Z,16.50
2019-06-26T01:54:49.553Z,15.50
2019-06-26T01:57:18.071Z,16.10
2019-06-26T01:59:46.543Z,19.93
2019-06-26T02:02:15.007Z,19.33
2019-06-26T02:04:43.550Z,16.63
2019-06-26T02:07:12.147Z,15.27
2019-06-26T02:09:40.817Z,15.47
2019-06-26T02:12:09.338Z,15.30
2019-06-26T02:14:37.812Z,14.63
2019-06-26T02:17:06.279Z,16.03
2019-06-26T02:19:34.803Z,15.00
2019-06-26T02:22:03.344Z,26.17
2019-06-26T02:24:31.943Z,14.87
2019-06-26T02:27:00.551Z,15.17
2019-06-26T02:29:29.028Z,16.80
2019-06-26T02:31:57.554Z,16.07
2019-06-26T02:34:26.096Z,16.30
2019-06-26T02:36:54.634Z,17.63
2019-06-26T02:39:23.178Z,16.00
2019-06-26T02:41:51.707Z,15.63
2019-06-26T02:44:20.250Z,20.33
2019-06-26T02:46:48.698Z,18.77
2019-06-26T02:49:17.164Z,17.33
2019-06-26T02:51:45.625Z,17.23
2019-06-26T02:54:14.095Z,32.87
2019-06-26T02:56:42.642Z,18.63
2019-06-26T02:59:11.167Z,18.83
2019-06-26T03:01:39.632Z,17.23
2019-06-26T03:04:08.214Z,19.40
2019-06-26T03:06:37.169Z,18.80
2019-06-26T03:09:07.269Z,17.63
2019-06-26T03:11:35.812Z,17.20
2019-06-26T03:14:04.412Z,14.70
2019-06-26T03:16:32.948Z,14.30
2019-06-26T03:19:01.526Z,14.93
2019-06-26T03:21:30.053Z,14.73
2019-06-26T03:23:58.587Z,21.37
2019-06-26T03:26:27.039Z,20.73
2019-06-26T03:28:55.591Z,25.77
2019-06-26T03:31:24.042Z,36.23
2019-06-26T03:33:52.505Z,21.27
2019-06-26T03:36:20.975Z,17.80
2019-06-26T03:38:49.495Z,16.70
2019-06-26T03:41:17.964Z,28.43
2019-06-26T03:43:46.443Z,16.53
2019-06-26T03:46:14.980Z,16.00
2019-06-26T03:48:43.447Z,19.27
2019-06-26T03:51:14.035Z,22.53
2019-06-26T03:53:42.095Z,15.10
2019-06-26T03:56:10.583Z,15.90
2019-06-26T03:58:39.125Z,24.67
2019-06-26T04:01:07.667Z,22.13
2019-06-26T04:03:36.188Z,16.17
2019-06-26T04:06:04.785Z,15.03
2019-06-26T04:08:33.247Z,13.57
2019-06-26T04:11:01.707Z,15.80
2019-06-26T04:13:30.251Z,15.67
2019-06-26T04:15:58.722Z,14.10
2019-06-26T04:18:27.250Z,16.00
2019-06-26T04:20:55.802Z,12.80
2019-06-26T04:23:24.335Z,20.93
2019-06-26T04:25:52.800Z,15.43
2019-06-26T04:28:21.699Z,13.30
2019-06-26T04:30:50.168Z,12.60
2019-06-26T04:33:18.704Z,14.30
2019-06-26T04:35:47.171Z,14.73
2019-06-26T04:38:15.641Z,13.60
2019-06-26T04:40:44.247Z,19.33
2019-06-26T04:43:12.720Z,18.47
2019-06-26T04:45:56.950Z,16.87
2019-06-26T04:48:11.443Z,14.07
2019-06-26T04:50:40.610Z,13.67
2019-06-26T04:53:09.147Z,16.00
2019-06-26T04:55:37.626Z,15.13
2019-06-26T04:58:06.222Z,14.53
2019-06-26T05:00:34.707Z,12.53
2019-06-26T05:03:03.227Z,13.13
2019-06-26T05:05:39.591Z,15.17
2019-06-26T05:08:01.892Z,17.30
2019-06-26T05:10:30.418Z,13.40
2019-06-26T05:12:58.977Z,17.30
2019-06-26T05:15:27.506Z,16.23
2019-06-26T05:17:56.064Z,16.33
2019-06-26T05:20:24.571Z,20.43
2019-06-26T05:22:53.040Z,19.07
2019-06-26T05:25:21.491Z,13.70
2019-06-26T05:27:49.963Z,14.97
2019-06-26T05:30:19.056Z,19.87
2019-06-26T05:32:47.556Z,19.00
2019-06-26T05:35:18.162Z,18.00
2019-06-26T05:37:46.624Z,17.13
2019-06-26T05:40:15.378Z,12.30
2019-06-26T05:42:43.896Z,14.07
2019-06-26T05:45:13.309Z,19.07
2019-06-26T05:47:41.827Z,11.13
2019-06-26T05:50:11.291Z,13.77
2019-06-26T05:52:42.560Z,13.10
2019-06-26T05:55:10.585Z,12.80
2019-06-26T05:57:41.768Z,20.90
2019-06-26T06:00:10.562Z,13.20
2019-06-26T06:02:39.303Z,15.53
2019-06-26T06:05:27.107Z,15.47
2019-06-26T06:07:55.629Z,11.60
2019-06-26T06:10:24.227Z,12.37
2019-06-26T06:12:52.841Z,13.83
2019-06-26T06:15:21.519Z,17.00
2019-06-26T06:17:49.987Z,14.90
2019-06-26T06:20:24.008Z,14.97
2019-06-26T06:22:52.476Z,11.33
2019-06-26T06:25:21.015Z,12.00
2019-06-26T06:27:49.499Z,13.03
2019-06-26T06:30:18.230Z,13.50
2019-06-26T06:32:46.926Z,11.40
2019-06-26T06:35:15.455Z,10.77
2019-06-26T06:37:44.006Z,13.20
2019-06-26T06:40:12.979Z,13.50
2019-06-26T06:42:41.511Z,11.90
2019-06-26T06:45:10.199Z,11.60
2019-06-26T06:47:38.671Z,12.23
2019-06-26T06:50:07.197Z,11.87
2019-06-26T06:52:35.770Z,18.73
2019-06-26T06:55:05.975Z,18.03
2019-06-26T06:57:34.467Z,15.77
2019-06-26T07:00:03.486Z,16.10
2019-06-26T07:02:31.932Z,21.50
2019-06-26T07:05:00.551Z,14.90
2019-06-26T07:07:29.015Z,12.07
2019-06-26T07:09:57.473Z,11.27
2019-06-26T07:12:26.080Z,11.20
2019-06-26T07:14:54.535Z,11.63
2019-06-26T07:17:23.007Z,15.10
2019-06-26T07:19:51.531Z,10.47
2019-06-26T07:22:19.984Z,14.30
2019-06-26T07:24:48.529Z,13.00
2019-06-26T07:27:17.075Z,11.87
2019-06-26T07:29:45.543Z,11.93
2019-06-26T07:32:14.009Z,15.80
2019-06-26T07:34:42.536Z,11.90
2019-06-26T07:37:11.005Z,14.20
2019-06-26T07:39:39.543Z,13.40
2019-06-26T07:42:08.072Z,12.00
2019-06-26T07:44:36.707Z,15.80
2019-06-26T07:47:12.660Z,10.70
2019-06-26T07:49:35.428Z,10.90
2019-06-26T07:52:04.059Z,11.87
2019-06-26T07:54:32.579Z,10.63
2019-06-26T07:57:01.053Z,10.30
2019-06-26T07:59:29.508Z,10.53
2019-06-26T08:01:57.978Z,10.03
2019-06-26T08:04:26.427Z,10.53
2019-06-26T08:06:54.968Z,10.43
2019-06-26T08:09:23.446Z,10.30
2019-06-26T08:11:51.956Z,9.20
2019-06-26T08:14:20.487Z,9.80
2019-06-26T08:16:48.952Z,10.73
2019-06-26T08:19:17.485Z,9.67
2019-06-26T08:21:46.890Z,16.67
2019-06-26T08:24:15.560Z,12.80
2019-06-26T08:26:44.099Z,11.87
2019-06-26T08:29:12.623Z,13.10
2019-06-26T08:31:41.090Z,14.20
2019-06-26T08:34:09.575Z,8.87
2019-06-26T08:36:38.095Z,10.23
2019-06-26T08:39:07.306Z,11.77
2019-06-26T08:41:35.775Z,11.80
2019-06-26T08:44:04.302Z,9.27
2019-06-26T08:46:32.755Z,8.97
2019-06-26T08:49:01.277Z,8.80
2019-06-26T08:51:29.851Z,8.10
2019-06-26T08:53:58.316Z,8.70
2019-06-26T08:56:26.759Z,7.73
2019-06-26T08:58:55.219Z,9.50
2019-06-26T09:01:23.687Z,14.63
2019-06-26T09:03:52.139Z,8.20
2019-06-26T09:06:20.616Z,11.97
2019-06-26T09:08:49.148Z,12.03
2019-06-26T09:11:17.694Z,9.10
2019-06-26T09:13:46.221Z,10.63
2019-06-26T09:16:14.769Z,8.37
2019-06-26T09:18:43.303Z,7.80
2019-06-26T09:21:11.831Z,8.40
2019-06-26T09:23:40.315Z,7.13
2019-06-26T09:26:08.775Z,8.70
2019-06-26T09:28:37.358Z,7.63
2019-06-26T09:31:05.816Z,9.30
2019-06-26T09:33:34.292Z,10.30
2019-06-26T09:36:06.648Z,8.70
2019-06-26T09:38:52.397Z,9.20
2019-06-26T09:41:20.935Z,9.10
2019-06-26T09:43:49.387Z,9.87
2019-06-26T09:46:17.921Z,9.57
2019-06-26T09:48:52.547Z,9.57
2019-06-26T09:51:16.549Z,9.63
2019-06-26T09:53:47.446Z,12.23
2019-06-26T09:56:15.191Z,8.23
2019-06-26T09:58:43.707Z,8.33
2019-06-26T10:01:12.167Z,8.80
2019-06-26T10:03:40.619Z,8.53
2019-06-26T10:06:09.091Z,7.87
2019-06-26T10:08:37.607Z,7.83
2019-06-26T10:11:07.490Z,8.63
2019-06-26T10:13:36.088Z,8.37
2019-06-26T10:16:04.760Z,9.07
2019-06-26T10:18:33.269Z,7.87
2019-06-26T10:21:01.863Z,7.30
2019-06-26T10:23:30.408Z,8.43
2019-06-26T10:25:58.868Z,9.07
2019-06-26T10:28:27.328Z,9.10
2019-06-26T10:30:55.870Z,7.83
2019-06-26T10:33:24.643Z,9.80
2019-06-26T10:35:53.263Z,7.07
2019-06-26T10:38:21.796Z,6.43
2019-06-26T10:40:50.319Z,6.87
2019-06-26T10:43:18.775Z,5.30
2019-06-26T10:45:47.239Z,6.60
2019-06-26T10:48:15.699Z,6.17
2019-06-26T10:50:51.056Z,6.53
2019-06-26T10:53:14.337Z,12.50
2019-06-26T10:55:43.671Z,6.60
2019-06-26T10:58:12.130Z,9.33
2019-06-26T11:00:40.733Z,6.70
2019-06-26T11:03:09.254Z,5.80
2019-06-26T11:05:37.716Z,8.80
2019-06-26T11:08:06.320Z,6.77
2019-06-26T11:10:34.936Z,6.47
2019-06-26T11:13:03.462Z,11.30
2019-06-26T11:15:32.071Z,6.63
2019-06-26T11:18:00.573Z,7.50
2019-06-26T11:20:29.073Z,9.87
2019-06-26T11:22:57.556Z,5.87
2019-06-26T11:25:26.056Z,7.20
2019-06-26T11:27:54.584Z,8.40
2019-06-26T11:30:23.627Z,7.50
2019-06-26T11:32:52.148Z,7.40
2019-06-26T11:35:20.670Z,11.20
2019-06-26T11:37:49.222Z,7.70
2019-06-26T11:40:18.292Z,8.17
2019-06-26T11:42:46.760Z,11.20
2019-06-26T11:45:15.523Z,7.80
2019-06-26T11:47:45.897Z,8.30
2019-06-26T11:50:14.899Z,8.10
2019-06-26T11:52:43.359Z,9.37
2019-06-26T11:55:12.559Z,11.47
2019-06-26T11:57:41.080Z,8.27
2019-06-26T12:00:12.287Z,8.60
2019-06-26T12:02:40.753Z,7.80
2019-06-26T12:05:10.143Z,11.50
2019-06-26T12:07:38.734Z,8.10
2019-06-26T12:10:08.737Z,8.37
2019-06-26T12:12:37.350Z,8.40
2019-06-26T12:15:07.309Z,8.63
2019-06-26T12:17:35.782Z,8.60
2019-06-26T12:20:17.846Z,9.80
2019-06-26T12:22:35.924Z,8.93
2019-06-26T12:25:05.818Z,10.00
2019-06-26T12:27:34.348Z,8.50
2019-06-26T12:30:04.238Z,8.63
2019-06-26T12:32:41.802Z,9.87
2019-06-26T12:35:03.985Z,10.70
2019-06-26T12:37:37.470Z,13.83
2019-06-26T12:40:03.426Z,10.53
2019-06-26T12:42:31.943Z,10.10
2019-06-26T12:45:00.473Z,10.60
2019-06-26T12:47:28.931Z,10.53
2019-06-26T12:49:57.384Z,16.80
2019-06-26T12:52:25.849Z,10.30
2019-06-26T12:54:54.296Z,9.43
2019-06-26T12:57:22.758Z,9.27
2019-06-26T12:59:57.299Z,8.77
2019-06-26T13:02:21.531Z,13.57
2019-06-26T13:04:49.988Z,12.60
2019-06-26T13:07:18.541Z,10.10
2019-06-26T13:09:47.132Z,9.40
2019-06-26T13:12:15.648Z,9.53
2019-06-26T13:14:44.111Z,9.47
2019-06-26T13:17:12.643Z,13.20
2019-06-26T13:19:41.143Z,11.13
2019-06-26T13:22:09.671Z,9.30
2019-06-26T13:24:38.185Z,11.43
2019-06-26T13:27:06.705Z,10.97
2019-06-26T13:29:35.171Z,10.90
2019-06-26T13:32:03.729Z,15.33
2019-06-26T13:34:32.243Z,11.07
2019-06-26T13:37:00.809Z,10.47
2019-06-26T13:39:29.304Z,9.30
2019-06-26T13:41:57.767Z,12.17
2019-06-26T13:44:26.221Z,16.50
2019-06-26T13:46:54.688Z,9.30
2019-06-26T13:49:23.211Z,9.63
2019-06-26T13:51:51.760Z,8.90
2019-06-26T13:54:20.272Z,13.87
2019-06-26T13:56:48.739Z,12.73
2019-06-26T13:59:17.217Z,9.67
2019-06-26T14:01:45.754Z,9.33
2019-06-26T14:04:14.204Z,8.80
2019-06-26T14:06:42.801Z,9.03
2019-06-26T14:09:11.272Z,8.60
2019-06-26T14:11:39.715Z,9.33
2019-06-26T14:14:08.189Z,10.20
2019-06-26T14:16:36.737Z,9.50
2019-06-26T14:19:05.311Z,8.93
2019-06-26T14:21:33.787Z,9.40
2019-06-26T14:24:02.342Z,9.50
2019-06-26T14:26:30.864Z,10.90
2019-06-26T14:28:59.341Z,8.73
2019-06-26T14:31:27.850Z,9.13
2019-06-26T14:33:56.316Z,8.70
2019-06-26T14:36:24.759Z,8.90
2019-06-26T14:38:53.223Z,10.47
2019-06-26T14:41:21.686Z,9.77
2019-06-26T14:43:50.144Z,13.50
2019-06-26T14:46:30.751Z,9.60
2019-06-26T14:48:59.297Z,15.30
2019-06-26T14:51:41.186Z,8.73
2019-06-26T14:53:57.931Z,11.97
2019-06-26T14:56:26.396Z,8.60
2019-06-26T14:58:54.915Z,9.23
2019-06-26T15:01:23.391Z,13.73
2019-06-26T15:03:51.923Z,10.63
2019-06-26T15:06:20.455Z,8.40
2019-06-26T15:08:48.914Z,9.90
2019-06-26T15:11:17.364Z,8.40
2019-06-26T15:13:45.823Z,8.97
2019-06-26T15:16:14.344Z,9.20
2019-06-26T15:18:42.914Z,10.20
2019-06-26T15:21:11.372Z,10.00
2019-06-26T15:23:39.888Z,9.07
2019-06-26T15:26:08.359Z,8.80
2019-06-26T15:28:36.871Z,10.73
2019-06-26T15:31:05.410Z,8.67
2019-06-26T15:33:36.601Z,9.03
2019-06-26T15:36:04.121Z,9.30
2019-06-26T15:38:32.637Z,9.10
2019-06-26T15:41:01.116Z,9.17
2019-06-26T15:43:29.640Z,8.97
2019-06-26T15:45:58.095Z,8.40
2019-06-26T15:48:26.632Z,8.43
2019-06-26T15:50:55.085Z,8.47
2019-06-26T15:53:23.628Z,10.20
2019-06-26T15:55:52.194Z,12.60
2019-06-26T15:58:20.636Z,8.30
2019-06-26T16:00:49.101Z,8.30
2019-06-26T16:03:17.549Z,14.53
2019-06-26T16:05:46.038Z,7.60
2019-06-26T16:08:14.555Z,9.00
2019-06-26T16:10:43.368Z,14.30
2019-06-26T16:13:11.896Z,14.50
2019-06-26T16:15:40.430Z,8.07
2019-06-26T16:18:10.658Z,8.37
2019-06-26T16:20:39.197Z,8.30
2019-06-26T16:23:07.710Z,7.37
2019-06-26T16:25:36.180Z,10.80
2019-06-26T16:28:06.075Z,7.47
2019-06-26T16:30:34.838Z,8.20
2019-06-26T16:33:03.409Z,7.03
2019-06-26T16:35:31.858Z,6.80
2019-06-26T16:38:00.319Z,7.70
2019-06-26T16:40:28.775Z,5.80
2019-06-26T16:42:57.234Z,7.37
2019-06-26T16:45:25.774Z,6.87
2019-06-26T16:47:54.359Z,6.87
2019-06-26T16:50:22.815Z,7.23
2019-06-26T16:52:51.262Z,6.23
2019-06-26T16:55:19.747Z,8.20
2019-06-26T16:57:48.195Z,7.50
2019-06-26T17:00:18.637Z,6.90
2019-06-26T17:02:47.087Z,6.43
2019-06-26T17:05:16.195Z,7.27
2019-06-26T17:07:44.661Z,7.87
2019-06-26T17:10:13.573Z,6.60
2019-06-26T17:12:42.168Z,9.50
2019-06-26T17:15:11.651Z,6.77
2019-06-26T17:17:40.116Z,7.23
2019-06-26T17:20:09.246Z,6.73
2019-06-26T17:22:37.798Z,7.27
2019-06-26T17:25:07.284Z,16.40
2019-06-26T17:27:35.959Z,12.17
2019-06-26T17:30:06.451Z,7.77
2019-06-26T17:32:34.933Z,8.40
2019-06-26T17:35:05.116Z,10.07
2019-06-26T17:37:33.706Z,8.77
2019-06-26T17:40:02.228Z,11.10
2019-06-26T17:42:30.699Z,9.03
2019-06-26T17:44:59.159Z,8.10
2019-06-26T17:47:27.699Z,8.40
2019-06-26T17:49:56.215Z,8.57
2019-06-26T17:52:24.663Z,12.17
2019-06-26T17:54:53.122Z,11.07
2019-06-26T17:57:21.630Z,9.60
2019-06-26T17:59:50.135Z,10.00
2019-06-26T18:02:18.652Z,9.60
2019-06-26T18:04:47.098Z,12.40
2019-06-26T18:07:15.567Z,12.80
2019-06-26T18:09:44.032Z,10.50
2019-06-26T18:12:12.567Z,10.53
2019-06-26T18:14:43.246Z,10.97
2019-06-26T18:17:21.685Z,12.87
2019-06-26T18:19:41.396Z,13.60
2019-06-26T18:22:09.863Z,10.30
2019-06-26T18:24:57.668Z,10.40
2019-06-26T18:27:26.131Z,11.60
2019-06-26T18:29:54.599Z,14.63
2019-06-26T18:32:23.076Z,16.17
2019-06-26T18:34:51.541Z,11.27
2019-06-26T18:37:19.992Z,10.80
2019-06-26T18:39:48.522Z,11.73
2019-06-26T18:42:17.003Z,13.00
2019-06-26T18:44:45.527Z,17.50
2019-06-26T18:47:14.012Z,13.73
2019-06-26T18:49:42.539Z,11.20
2019-06-26T18:52:11.009Z,12.07
2019-06-26T18:54:39.480Z,13.73
2019-06-26T18:57:08.040Z,13.00
2019-06-26T18:59:36.508Z,13.53
2019-06-26T19:02:05.057Z,13.83
2019-06-26T19:04:33.563Z,11.77
2019-06-26T19:07:02.035Z,13.83
2019-06-26T19:09:30.635Z,18.07
2019-06-26T19:11:59.228Z,11.33
2019-06-26T19:14:27.699Z,11.43
2019-06-26T19:16:56.172Z,12.60
2019-06-26T19:19:24.698Z,15.87
2019-06-26T19:21:53.167Z,12.90
2019-06-26T19:24:21.703Z,13.03
2019-06-26T19:26:50.167Z,12.97
2019-06-26T19:29:18.635Z,13.87
2019-06-26T19:31:47.111Z,15.50
2019-06-26T19:34:15.864Z,13.90
2019-06-26T19:36:49.950Z,12.40
2019-06-26T19:39:14.520Z,16.70
2019-06-26T19:41:43.017Z,13.17
2019-06-26T19:44:11.544Z,12.20
2019-06-26T19:46:41.983Z,12.77
2019-06-26T19:49:10.266Z,13.17
2019-06-26T19:51:38.721Z,13.87
2019-06-26T19:54:22.775Z,14.30
2019-06-26T19:56:39.339Z,12.77
2019-06-26T19:59:08.257Z,14.47
2019-06-26T20:01:37.166Z,17.80
2019-06-26T20:04:06.214Z,16.70
2019-06-26T20:06:35.087Z,14.63
2019-06-26T20:09:04.616Z,16.83
2019-06-26T20:11:33.577Z,15.47
2019-06-26T20:14:02.164Z,17.33
2019-06-26T20:16:31.337Z,14.17
2019-06-26T20:19:00.247Z,14.57
2019-06-26T20:21:28.902Z,14.77
2019-06-26T20:23:57.893Z,15.53
2019-06-26T20:26:26.781Z,17.63
2019-06-26T20:28:55.452Z,15.47
2019-06-26T20:31:25.309Z,14.27
2019-06-26T20:33:54.321Z,16.07
2019-06-26T20:36:23.112Z,15.20
2019-06-26T20:38:52.078Z,14.77
2019-06-26T20:41:20.620Z,15.30
2019-06-26T20:43:49.159Z,15.20
2019-06-26T20:46:17.611Z,15.60
2019-06-26T20:48:46.078Z,16.70
2019-06-26T20:51:14.532Z,18.23
2019-06-26T20:53:43.084Z,17.53
2019-06-26T20:56:11.531Z,15.57
2019-06-26T20:58:40.068Z,21.47
2019-06-26T21:01:08.543Z,17.67
2019-06-26T21:03:36.996Z,21.33
2019-06-26T21:06:05.530Z,16.77
2019-06-26T21:08:34.025Z,17.43
2019-06-26T21:11:02.545Z,16.83
2019-06-26T21:13:30.998Z,16.00
2019-06-26T21:15:59.466Z,15.33
2019-06-26T21:18:27.922Z,20.60
2019-06-26T21:20:56.419Z,17.43
2019-06-26T21:23:24.877Z,17.67
2019-06-26T21:25:53.413Z,17.73
2019-06-26T21:28:21.894Z,23.83
2019-06-26T21:30:50.404Z,16.03
2019-06-26T21:33:18.897Z,20.73
2019-06-26T21:35:47.416Z,19.47
2019-06-26T21:38:15.964Z,19.60
2019-06-26T21:40:44.492Z,16.90
2019-06-26T21:43:13.034Z,20.73
2019-06-26T21:45:41.495Z,17.97
2019-06-26T21:48:09.971Z,19.40
2019-06-26T21:50:38.515Z,22.50
2019-06-26T21:53:07.052Z,21.00
2019-06-26T21:55:35.501Z,19.33
2019-06-26T21:58:04.004Z,17.57
2019-06-26T22:00:34.223Z,20.10
2019-06-26T22:03:02.839Z,19.03
2019-06-26T22:05:31.447Z,18.93
2019-06-26T22:07:59.899Z,20.63
2019-06-26T22:10:28.507Z,18.70
2019-06-26T22:12:57.032Z,21.87
2019-06-26T22:15:25.559Z,19.57
2019-06-26T22:17:54.095Z,19.87
2019-06-26T22:20:22.688Z,21.23
2019-06-26T22:22:51.159Z,17.43
2019-06-26T22:25:19.759Z,19.90
2019-06-26T22:27:48.436Z,20.23
2019-06-26T22:30:17.527Z,17.83
2019-06-26T22:32:46.067Z,16.40
2019-06-26T22:35:15.167Z,16.27
2019-06-26T22:37:43.622Z,17.23
2019-06-26T22:40:12.228Z,17.23
2019-06-26T22:42:40.830Z,16.30
2019-06-26T22:45:09.555Z,15.57
2019-06-26T22:47:38.011Z,17.47
2019-06-26T22:50:08.109Z,17.30
2019-06-26T22:52:36.753Z,17.07
2019-06-26T22:55:06.814Z,18.13
2019-06-26T22:57:35.500Z,19.20
2019-06-26T23:00:06.781Z,19.03
2019-06-26T23:02:54.668Z,25.60
2019-06-26T23:05:23.213Z,19.53
2019-06-26T23:07:51.737Z,18.10
2019-06-26T23:10:20.745Z,18.97
2019-06-26T23:12:49.205Z,21.13
2019-06-26T23:15:17.916Z,18.60
2019-06-26T23:17:46.516Z,22.00
2019-06-26T23:20:15.062Z,16.87
2019-06-26T23:22:43.524Z,18.33
2019-06-26T23:25:12.740Z,17.53
2019-06-26T23:27:41.345Z,18.43
2019-06-26T23:30:15.783Z,18.33
2019-06-26T23:32:44.244Z,23.67
2019-06-26T23:35:12.955Z,22.30
2019-06-26T23:37:41.552Z,18.37
2019-06-26T23:40:10.152Z,18.60
2019-06-26T23:42:39.029Z,20.00
2019-06-26T23:45:11.082Z,34.57
2019-06-26T23:47:39.656Z,16.93
2019-06-26T23:50:08.185Z,18.50
2019-06-26T23:52:36.731Z,18.17
2019-06-26T23:55:07.396Z,19.03
2019-06-26T23:57:35.873Z,22.30
